createdAt,value
2023-04-09T00:00:36.590Z,23.30
2023-04-09T00:03:09.450Z,24.80
2023-04-09T00:05:44.097Z,24.60
2023-04-09T00:08:16.980Z,25.70
2023-04-09T00:10:49.436Z,24.80
2023-04-09T00:13:35.516Z,25.70
2023-04-09T00:16:12.307Z,25.30
2023-04-09T00:18:45.004Z,24.30
2023-04-09T00:21:18.929Z,26.50
2023-04-09T00:23:51.872Z,24.70
2023-04-09T00:26:24.294Z,25.20
2023-04-09T00:28:57.310Z,23.60
2023-04-09T00:31:29.866Z,19.60
2023-04-09T00:34:02.720Z,23.40
2023-04-09T00:36:35.386Z,24.60
2023-04-09T00:39:08.697Z,24.60
2023-04-09T00:41:41.679Z,25.10
2023-04-09T00:44:14.639Z,23.30
2023-04-09T00:46:47.212Z,23.90
2023-04-09T00:49:20.035Z,23.40
2023-04-09T00:51:52.803Z,25.10
2023-04-09T00:54:25.534Z,20.30
2023-04-09T00:56:59.145Z,25.00
2023-04-09T00:59:32.185Z,23.00
2023-04-09T01:02:05.131Z,21.60
2023-04-09T01:04:42.315Z,23.40
2023-04-09T01:07:22.150Z,20.70
2023-04-09T01:10:04.027Z,22.20
2023-04-09T01:12:56.452Z,20.10
2023-04-09T01:15:32.878Z,21.70
2023-04-09T01:18:09.845Z,21.80
2023-04-09T01:20:45.830Z,22.30
2023-04-09T01:23:29.808Z,21.80
2023-04-09T01:26:12.812Z,21.20
2023-04-09T01:28:58.591Z,21.60
2023-04-09T01:31:34.463Z,20.90
2023-04-09T01:34:10.908Z,21.00
2023-04-09T01:36:47.229Z,20.00
2023-04-09T01:39:20.020Z,21.60
2023-04-09T01:41:53.519Z,19.60
2023-04-09T01:44:27.980Z,20.80
2023-04-09T01:47:02.313Z,19.10
2023-04-09T01:49:36.721Z,20.60
2023-04-09T01:52:09.469Z,24.90
2023-04-09T01:54:42.315Z,24.60
2023-04-09T01:57:14.904Z,21.90
2023-04-09T01:59:47.811Z,20.70
2023-04-09T02:02:26.963Z,20.50
2023-04-09T02:05:03.858Z,19.80
2023-04-09T02:07:44.568Z,19.20
2023-04-09T02:10:18.393Z,21.80
2023-04-09T02:12:54.291Z,22.80
2023-04-09T02:15:28.495Z,21.60
2023-04-09T02:18:01.205Z,20.60
2023-04-09T02:20:34.172Z,20.70
2023-04-09T02:23:06.626Z,20.90
2023-04-09T02:25:39.908Z,21.20
2023-04-09T02:28:12.600Z,20.90
2023-04-09T02:30:45.152Z,21.20
2023-04-09T02:33:17.811Z,20.50
2023-04-09T02:35:50.516Z,20.40
2023-04-09T02:38:25.044Z,20.70
2023-04-09T02:40:57.700Z,20.80
2023-04-09T02:43:30.289Z,21.10
2023-04-09T02:46:03.269Z,19.10
2023-04-09T02:48:37.111Z,20.10
2023-04-09T02:51:10.572Z,19.80
2023-04-09T02:53:43.456Z,20.00
2023-04-09T02:56:16.278Z,18.50
2023-04-09T02:58:52.309Z,21.30
2023-04-09T03:01:25.328Z,19.70
2023-04-09T03:03:58.120Z,21.80
2023-04-09T03:06:31.222Z,21.50
2023-04-09T03:09:03.887Z,18.30
2023-04-09T03:11:36.465Z,22.60
2023-04-09T03:14:08.991Z,20.40
2023-04-09T03:16:41.707Z,21.50
2023-04-09T03:19:15.074Z,17.80
2023-04-09T03:24:19.273Z,19.50
2023-04-09T03:26:52.246Z,18.50
2023-04-09T03:29:24.876Z,18.80
2023-04-09T03:31:57.915Z,15.80
2023-04-09T03:34:30.617Z,19.90
2023-04-09T03:37:03.245Z,19.90
2023-04-09T03:39:37.512Z,19.20
2023-04-09T03:42:10.015Z,20.20
2023-04-09T03:44:49.086Z,19.90
2023-04-09T03:47:29.820Z,19.80
2023-04-09T03:50:02.730Z,21.30
2023-04-09T03:52:46.466Z,19.90
2023-04-09T03:55:18.916Z,20.30
2023-04-09T03:57:52.489Z,20.50
2023-04-09T04:00:26.569Z,20.70
2023-04-09T04:03:23.090Z,21.10
2023-04-09T04:06:11.347Z,19.90
2023-04-09T04:08:56.381Z,20.40
2023-04-09T04:11:36.170Z,20.00
2023-04-09T04:14:08.834Z,20.30
2023-04-09T04:16:41.911Z,20.10
2023-04-09T04:19:15.520Z,20.70
2023-04-09T04:21:51.531Z,21.00
2023-04-09T04:24:25.156Z,20.20
2023-04-09T04:26:58.723Z,20.80
2023-04-09T04:29:37.924Z,20.70
2023-04-09T04:34:54.171Z,21.40
2023-04-09T04:37:30.192Z,22.50
2023-04-09T04:40:05.015Z,22.70
2023-04-09T04:42:38.729Z,22.20
2023-04-09T04:45:15.964Z,20.90
2023-04-09T04:48:01.669Z,21.90
2023-04-09T04:50:34.592Z,22.10
2023-04-09T04:53:10.231Z,22.30
2023-04-09T04:55:49.252Z,22.00
2023-04-09T04:58:23.506Z,22.20
2023-04-09T05:01:00.698Z,22.20
2023-04-09T05:03:33.879Z,22.30
2023-04-09T05:06:18.929Z,22.00
2023-04-09T05:08:52.678Z,22.90
2023-04-09T05:11:25.573Z,22.80
2023-04-09T05:13:58.015Z,22.50
2023-04-09T05:16:30.863Z,26.00
2023-04-09T05:19:09.311Z,24.50
2023-04-09T05:21:46.822Z,24.00
2023-04-09T05:24:21.708Z,24.70
2023-04-09T05:26:54.416Z,22.60
2023-04-09T05:29:26.981Z,24.70
2023-04-09T05:31:59.672Z,24.20
2023-04-09T05:34:37.220Z,25.20
2023-04-09T05:37:11.268Z,25.20
2023-04-09T05:42:15.307Z,23.60
2023-04-09T05:45:03.938Z,26.20
2023-04-09T05:47:38.738Z,25.80
2023-04-09T05:50:19.291Z,25.80
2023-04-09T05:52:53.787Z,25.70
2023-04-09T05:55:27.043Z,25.40
2023-04-09T05:58:03.834Z,27.30
2023-04-09T06:00:36.954Z,26.50
2023-04-09T06:03:10.761Z,26.20
2023-04-09T06:05:44.414Z,26.10
2023-04-09T06:08:17.214Z,28.00
2023-04-09T06:10:49.717Z,29.10
2023-04-09T06:13:22.674Z,27.50
2023-04-09T06:15:57.044Z,29.60
2023-04-09T06:18:30.200Z,29.70
2023-04-09T06:21:08.139Z,30.80
2023-04-09T06:23:40.998Z,31.50
2023-04-09T06:26:17.797Z,32.00
2023-04-09T06:28:50.394Z,31.20
2023-04-09T06:31:22.963Z,30.40
2023-04-09T06:33:56.138Z,29.60
2023-04-09T06:39:00.905Z,30.60
2023-04-09T06:41:33.492Z,29.20
2023-04-09T06:44:09.867Z,30.60
2023-04-09T06:46:43.241Z,29.70
2023-04-09T06:49:16.364Z,30.90
2023-04-09T06:51:48.914Z,31.70
2023-04-09T06:54:21.482Z,32.00
2023-04-09T06:56:55.338Z,31.00
2023-04-09T06:59:28.195Z,30.60
2023-04-09T07:02:00.732Z,30.60
2023-04-09T07:04:35.175Z,30.80
2023-04-09T07:07:08.025Z,31.40
2023-04-09T07:09:40.797Z,29.30
2023-04-09T07:12:13.493Z,30.50
2023-04-09T07:14:46.293Z,32.10
2023-04-09T07:17:19.751Z,31.00
2023-04-09T07:19:53.073Z,32.30
2023-04-09T07:22:27.610Z,32.00
2023-04-09T07:25:00.283Z,33.30
2023-04-09T07:27:33.733Z,32.20
2023-04-09T07:30:07.461Z,30.10
2023-04-09T07:32:40.596Z,33.20
2023-04-09T07:35:13.684Z,32.50
2023-04-09T07:37:46.704Z,31.90
2023-04-09T07:40:19.426Z,34.10
2023-04-09T07:42:54.212Z,33.90
2023-04-09T07:45:26.693Z,33.10
2023-04-09T07:48:00.181Z,32.60
2023-04-09T07:50:33.494Z,34.60
2023-04-09T07:53:06.193Z,33.60
2023-04-09T07:55:42.132Z,36.00
2023-04-09T07:58:15.046Z,42.30
2023-04-09T08:00:47.705Z,30.70
2023-04-09T08:03:23.258Z,36.30
2023-04-09T08:05:56.048Z,39.90
2023-04-09T08:08:28.861Z,28.60
2023-04-09T08:11:04.117Z,36.80
2023-04-09T08:13:37.465Z,37.50
2023-04-09T08:16:11.992Z,36.00
2023-04-09T08:18:44.827Z,35.40
2023-04-09T08:21:17.466Z,34.50
2023-04-09T08:23:50.294Z,35.20
2023-04-09T08:26:22.810Z,33.60
2023-04-09T08:28:55.684Z,35.00
2023-04-09T08:31:28.958Z,32.40
2023-04-09T08:34:02.457Z,33.50
2023-04-09T08:36:36.591Z,36.80
2023-04-09T08:39:13.424Z,33.40
2023-04-09T08:41:51.753Z,34.50
2023-04-09T08:44:27.878Z,37.00
2023-04-09T08:47:01.541Z,35.60
2023-04-09T08:52:05.693Z,31.70
2023-04-09T08:54:40.597Z,34.10
2023-04-09T08:57:13.565Z,35.00
2023-04-09T08:59:46.838Z,33.30
2023-04-09T09:02:19.599Z,32.40
2023-04-09T09:04:55.601Z,32.70
2023-04-09T09:07:29.409Z,29.60
2023-04-09T09:10:03.999Z,33.40
2023-04-09T09:12:40.310Z,31.90
2023-04-09T09:15:29.575Z,32.40
2023-04-09T09:18:04.218Z,31.10
2023-04-09T09:20:38.229Z,30.70
2023-04-09T09:23:10.807Z,29.70
2023-04-09T09:25:44.408Z,26.40
2023-04-09T09:30:49.262Z,26.00
2023-04-09T09:33:22.191Z,28.90
2023-04-09T09:35:58.054Z,24.90
2023-04-09T09:38:31.005Z,25.70
2023-04-09T09:41:20.200Z,26.20
2023-04-09T09:43:53.298Z,25.10
2023-04-09T09:46:26.821Z,24.20
2023-04-09T09:49:00.478Z,24.70
2023-04-09T09:51:37.591Z,24.40
2023-04-09T09:54:13.310Z,22.90
2023-04-09T09:56:47.345Z,21.30
2023-04-09T09:59:24.577Z,16.50
2023-04-09T10:02:02.267Z,20.50
2023-04-09T10:04:38.421Z,20.80
2023-04-09T10:07:11.355Z,22.10
2023-04-09T10:09:50.197Z,21.20
2023-04-09T10:12:25.006Z,20.90
2023-04-09T10:15:04.645Z,22.70
2023-04-09T10:17:37.316Z,17.50
2023-04-09T10:20:16.279Z,18.90
2023-04-09T10:22:50.591Z,18.90
2023-04-09T10:25:23.648Z,19.10
2023-04-09T10:28:04.932Z,19.20
2023-04-09T10:30:38.432Z,16.40
2023-04-09T10:33:15.802Z,11.20
2023-04-09T10:35:50.471Z,12.60
2023-04-09T10:38:37.634Z,12.40
2023-04-09T10:41:23.591Z,13.50
2023-04-09T10:43:56.185Z,14.60
2023-04-09T10:46:32.915Z,14.90
2023-04-09T10:49:18.108Z,13.90
2023-04-09T10:51:55.423Z,12.70
2023-04-09T10:54:46.867Z,13.80
2023-04-09T10:57:21.418Z,13.90
2023-04-09T10:59:57.183Z,13.80
2023-04-09T11:02:56.838Z,12.90
2023-04-09T11:05:38.677Z,15.50
2023-04-09T11:08:13.052Z,14.90
2023-04-09T11:10:49.122Z,13.90
2023-04-09T11:13:23.502Z,16.40
2023-04-09T11:15:57.208Z,19.20
2023-04-09T11:18:31.713Z,17.80
2023-04-09T11:21:05.278Z,17.90
2023-04-09T11:23:37.992Z,18.90
2023-04-09T11:26:14.013Z,19.70
2023-04-09T11:28:47.101Z,18.20
2023-04-09T11:31:19.462Z,19.00
2023-04-09T11:33:55.841Z,19.70
2023-04-09T11:36:28.981Z,17.40
2023-04-09T11:39:04.504Z,21.00
2023-04-09T11:41:42.661Z,20.60
2023-04-09T11:44:16.009Z,21.80
2023-04-09T11:46:49.356Z,20.10
2023-04-09T11:51:53.586Z,19.80
2023-04-09T11:56:57.949Z,18.50
2023-04-09T11:59:30.600Z,17.40
2023-04-09T12:02:03.625Z,16.60
2023-04-09T12:04:36.524Z,16.40
2023-04-09T12:07:11.902Z,16.80
2023-04-09T12:09:51.984Z,15.90
2023-04-09T12:12:27.744Z,16.60
2023-04-09T12:15:00.294Z,16.00
2023-04-09T12:17:34.614Z,16.90
2023-04-09T12:20:10.398Z,17.00
2023-04-09T12:22:43.886Z,16.90
2023-04-09T12:25:16.605Z,17.40
2023-04-09T12:27:49.250Z,18.10
2023-04-09T12:30:23.497Z,17.80
2023-04-09T12:32:57.014Z,18.30
2023-04-09T12:35:30.503Z,17.80
2023-04-09T12:38:03.098Z,18.10
2023-04-09T12:40:36.883Z,19.00
2023-04-09T12:43:09.763Z,18.70
2023-04-09T12:45:42.860Z,17.90
2023-04-09T12:48:15.428Z,18.00
2023-04-09T12:50:53.761Z,18.60
2023-04-09T12:53:34.534Z,18.30
2023-04-09T12:56:15.811Z,17.50
2023-04-09T12:58:55.320Z,17.50
2023-04-09T13:01:30.787Z,18.10
2023-04-09T13:04:07.725Z,18.90
2023-04-09T13:06:53.573Z,18.80
2023-04-09T13:09:30.364Z,18.10
2023-04-09T13:12:06.533Z,18.40
2023-04-09T13:14:48.310Z,17.30
2023-04-09T13:17:30.749Z,16.90
2023-04-09T13:20:07.545Z,16.20
2023-04-09T13:22:49.610Z,16.40
2023-04-09T13:25:24.538Z,15.50
2023-04-09T13:28:03.120Z,15.70
2023-04-09T13:30:39.018Z,15.50
2023-04-09T13:33:16.195Z,14.60
2023-04-09T13:35:54.840Z,15.50
2023-04-09T13:38:30.491Z,14.80
2023-04-09T13:41:04.635Z,16.10
2023-04-09T13:43:45.627Z,15.60
2023-04-09T13:46:18.773Z,14.60
2023-04-09T13:48:56.332Z,14.60
2023-04-09T13:51:33.800Z,14.60
2023-04-09T13:54:08.699Z,14.80
2023-04-09T13:56:43.433Z,13.60
2023-04-09T13:59:26.709Z,13.50
2023-04-09T14:02:02.324Z,14.70
2023-04-09T14:04:43.270Z,13.30
2023-04-09T14:07:19.225Z,13.60
2023-04-09T14:09:58.024Z,14.20
2023-04-09T14:12:33.464Z,14.90
2023-04-09T14:15:10.414Z,14.60
2023-04-09T14:17:45.130Z,13.60
2023-04-09T14:20:25.713Z,14.30
2023-04-09T14:23:17.577Z,13.70
2023-04-09T14:25:54.737Z,15.00
2023-04-09T14:28:29.761Z,13.20
2023-04-09T14:31:05.848Z,13.50
2023-04-09T14:33:40.356Z,15.00
2023-04-09T14:36:19.708Z,16.10
2023-04-09T14:39:01.085Z,15.30
2023-04-09T14:41:40.286Z,15.30
2023-04-09T14:44:18.649Z,14.70
2023-04-09T14:49:40.149Z,13.80
2023-04-09T14:52:17.903Z,14.60
2023-04-09T14:54:50.726Z,14.30
2023-04-09T14:57:23.355Z,15.70
2023-04-09T15:00:02.903Z,14.20
2023-04-09T15:02:45.256Z,14.50
2023-04-09T15:05:23.279Z,14.00
2023-04-09T15:08:11.024Z,14.80
2023-04-09T15:10:46.806Z,16.10
2023-04-09T15:13:24.628Z,15.90
2023-04-09T15:15:57.477Z,13.80
2023-04-09T15:18:31.854Z,15.10
2023-04-09T15:21:07.750Z,15.60
2023-04-09T15:23:42.171Z,15.00
2023-04-09T15:26:17.587Z,15.50
2023-04-09T15:28:54.455Z,14.20
2023-04-09T15:31:29.409Z,15.00
2023-04-09T15:34:06.276Z,14.40
2023-04-09T15:36:41.480Z,14.30
2023-04-09T15:39:14.580Z,15.30
2023-04-09T15:41:47.535Z,14.90
2023-04-09T15:44:24.040Z,14.90
2023-04-09T15:46:58.494Z,14.30
2023-04-09T15:49:32.630Z,15.00
2023-04-09T15:52:06.164Z,15.70
2023-04-09T15:57:10.794Z,15.50
2023-04-09T15:59:45.461Z,15.30
2023-04-09T16:02:19.210Z,14.30
2023-04-09T16:04:53.096Z,14.30
2023-04-09T16:07:28.212Z,14.80
2023-04-09T16:10:01.800Z,15.20
2023-04-09T16:12:34.693Z,14.40
2023-04-09T16:15:11.616Z,15.30
2023-04-09T16:17:46.789Z,14.50
2023-04-09T16:20:19.936Z,15.60
2023-04-09T16:22:52.612Z,15.00
2023-04-09T16:25:27.287Z,15.80
2023-04-09T16:28:01.885Z,15.80
2023-04-09T16:30:34.740Z,18.50
2023-04-09T16:33:08.925Z,14.20
2023-04-09T16:35:43.853Z,14.60
2023-04-09T16:38:18.803Z,14.40
2023-04-09T16:40:53.614Z,14.60
2023-04-09T16:43:30.958Z,13.20
2023-04-09T16:46:09.664Z,13.10
2023-04-09T16:48:43.542Z,14.20
2023-04-09T16:51:18.286Z,14.30
2023-04-09T16:53:51.560Z,13.70
2023-04-09T16:56:25.538Z,13.90
2023-04-09T16:59:00.432Z,15.20
2023-04-09T17:01:33.677Z,14.10
2023-04-09T17:04:07.880Z,15.00
2023-04-09T17:06:40.575Z,13.60
2023-04-09T17:09:14.924Z,14.10
2023-04-09T17:11:53.535Z,12.90
2023-04-09T17:14:29.756Z,14.40
2023-04-09T17:17:05.299Z,17.10
2023-04-09T17:19:42.799Z,15.40
2023-04-09T17:22:18.227Z,14.20
2023-04-09T17:24:53.713Z,13.40
2023-04-09T17:27:29.809Z,14.20
2023-04-09T17:30:02.586Z,16.30
2023-04-09T17:32:37.607Z,14.90
2023-04-09T17:35:13.330Z,14.70
2023-04-09T17:37:48.716Z,15.10
2023-04-09T17:40:24.074Z,15.40
2023-04-09T17:43:00.945Z,16.70
2023-04-09T17:45:35.433Z,15.60
2023-04-09T17:48:12.815Z,16.20
2023-04-09T17:50:47.594Z,18.20
2023-04-09T17:53:22.342Z,18.30
2023-04-09T17:55:55.341Z,16.60
2023-04-09T17:58:28.813Z,17.50
2023-04-09T18:01:03.131Z,16.40
2023-04-09T18:03:37.177Z,18.50
2023-04-09T18:06:12.120Z,17.80
2023-04-09T18:08:46.726Z,17.50
2023-04-09T18:11:22.099Z,17.60
2023-04-09T18:13:57.028Z,16.60
2023-04-09T18:16:29.860Z,17.40
2023-04-09T18:19:06.843Z,20.00
2023-04-09T18:21:43.640Z,18.00
2023-04-09T18:24:18.372Z,19.00
2023-04-09T18:26:53.011Z,18.00
2023-04-09T18:29:29.905Z,19.50
2023-04-09T18:32:06.096Z,18.90
2023-04-09T18:34:42.173Z,18.50
2023-04-09T18:37:18.495Z,18.70
2023-04-09T18:39:52.889Z,20.40
2023-04-09T18:42:28.201Z,20.00
2023-04-09T18:45:03.488Z,19.80
2023-04-09T18:47:38.641Z,19.20
2023-04-09T18:50:15.494Z,19.60
2023-04-09T18:52:50.315Z,18.70
2023-04-09T18:55:25.299Z,18.40
2023-04-09T18:57:59.505Z,20.40
2023-04-09T19:00:35.492Z,27.10
2023-04-09T19:03:11.935Z,25.90
2023-04-09T19:05:47.995Z,25.10
2023-04-09T19:08:23.039Z,21.80
2023-04-09T19:10:58.028Z,22.50
2023-04-09T19:13:32.923Z,20.40
2023-04-09T19:16:09.977Z,19.60
2023-04-09T19:18:50.407Z,19.00
2023-04-09T19:21:25.017Z,22.70
2023-04-09T19:24:01.222Z,29.80
2023-04-09T19:26:34.598Z,24.10
2023-04-09T19:29:07.713Z,23.80
2023-04-09T19:31:41.979Z,34.30
2023-04-09T19:34:15.388Z,27.00
2023-04-09T19:36:49.021Z,24.40
2023-04-09T19:41:53.024Z,21.60
2023-04-09T19:44:25.704Z,29.20
2023-04-09T19:47:00.521Z,51.20
2023-04-09T19:49:33.923Z,40.40
2023-04-09T19:52:08.595Z,27.90
2023-04-09T19:54:41.540Z,25.60
2023-04-09T19:57:15.544Z,26.10
2023-04-09T19:59:53.463Z,24.20
2023-04-09T20:02:27.160Z,29.20
2023-04-09T20:07:30.553Z,41.70
2023-04-09T20:10:03.268Z,44.40
2023-04-09T20:12:36.083Z,40.00
2023-04-09T20:15:11.622Z,37.00
2023-04-09T20:17:44.228Z,34.90
2023-04-09T20:20:20.689Z,34.10
2023-04-09T20:22:56.595Z,31.90
2023-04-09T20:25:34.692Z,28.20
2023-04-09T20:28:10.218Z,27.90
2023-04-09T20:30:43.213Z,28.80
2023-04-09T20:33:16.170Z,29.10
2023-04-09T20:35:50.118Z,33.00
2023-04-09T20:38:22.828Z,42.90
2023-04-09T20:40:58.781Z,42.10
2023-04-09T20:43:31.627Z,34.40
2023-04-09T20:46:05.367Z,31.10
2023-04-09T20:48:38.267Z,31.30
2023-04-09T20:51:14.171Z,31.30
2023-04-09T20:53:46.920Z,30.20
2023-04-09T20:56:19.588Z,32.10
2023-04-09T20:58:52.931Z,26.20
2023-04-09T21:01:27.532Z,25.70
2023-04-09T21:04:00.231Z,25.10
2023-04-09T21:06:33.404Z,24.90
2023-04-09T21:09:06.328Z,28.80
2023-04-09T21:11:38.735Z,26.30
2023-04-09T21:14:13.263Z,26.40
2023-04-09T21:16:46.199Z,26.60
2023-04-09T21:19:18.931Z,28.80
2023-04-09T21:21:51.774Z,29.00
2023-04-09T21:24:24.684Z,28.30
2023-04-09T21:26:57.853Z,26.40
2023-04-09T21:29:30.451Z,25.20
2023-04-09T21:32:02.807Z,25.60
2023-04-09T21:34:35.535Z,27.90
2023-04-09T21:37:08.672Z,30.30
2023-04-09T21:39:41.268Z,28.20
2023-04-09T21:42:15.028Z,32.00
2023-04-09T21:47:18.435Z,31.40
2023-04-09T21:49:51.918Z,31.20
2023-04-09T21:52:24.709Z,29.80
2023-04-09T21:54:57.484Z,30.80
2023-04-09T21:57:30.075Z,31.90
2023-04-09T22:00:02.844Z,31.20
2023-04-09T22:02:40.496Z,33.70
2023-04-09T22:05:14.259Z,30.90
